Time;durP1;ratioP1;P1;durP2;ratioP2;P2;SDS_P1;SDS_P2;PMS_P1;PMS_P2;Temp;Humidity;BMP_temperature;BMP_pressure;BME280_temperature;BME280_humidity;BME280_pressure;Samples;Min_cycle;Max_cycle;Signal;HPM_P1;HPM_P2
2022/03/19 00:01:21;;;;;;;5.22;4.07;;;;;;;;;;5079354;28;20534;-79
2022/03/19 00:03:48;;;;;;;7.70;4.07;;;;;;;;;;5071217;28;20195;-77
2022/03/19 00:06:15;;;;;;;4.80;4.30;;;;;;;;;;5071838;28;20233;-77
2022/03/19 00:08:42;;;;;;;6.40;4.05;;;;;;;;;;5071087;28;20190;-77
2022/03/19 00:11:09;;;;;;;4.55;4.13;;;;;;;;;;5079431;28;20186;-79
2022/03/19 00:13:36;;;;;;;4.22;3.78;;;;;;;;;;5071409;28;20186;-81
2022/03/19 00:16:05;;;;;;;8.88;4.45;;;;;;;;;;5068502;28;20218;-79
2022/03/19 00:18:32;;;;;;;7.88;4.03;;;;;;;;;;5068148;28;20279;-78
2022/03/19 00:20:59;;;;;;;6.80;4.55;;;;;;;;;;5070534;28;20202;-77
2022/03/19 00:23:26;;;;;;;4.85;4.00;;;;;;;;;;5065242;28;20231;-78
2022/03/19 00:25:53;;;;;;;10.15;5.30;;;;;;;;;;5073209;28;20268;-78
2022/03/19 00:28:20;;;;;;;6.25;4.25;;;;;;;;;;5077111;28;20524;-74
2022/03/19 00:30:48;;;;;;;6.78;3.80;;;;;;;;;;5069548;28;20577;-74
2022/03/19 00:33:16;;;;;;;8.98;4.18;;;;;;;;;;5071430;28;20199;-74
2022/03/19 00:35:43;;;;;;;7.50;5.05;;;;;;;;;;5071768;28;20521;-74
2022/03/19 00:38:10;;;;;;;6.65;4.60;;;;;;;;;;5066230;28;20191;-74
2022/03/19 00:40:37;;;;;;;5.80;4.50;;;;;;;;;;5065688;28;20218;-74
2022/03/19 00:43:04;;;;;;;5.28;4.55;;;;;;;;;;5072055;28;20205;-74
2022/03/19 00:45:31;;;;;;;6.45;4.65;;;;;;;;;;5067257;28;20206;-75
2022/03/19 00:47:58;;;;;;;8.20;4.70;;;;;;;;;;5068635;28;20206;-74
2022/03/19 00:50:27;;;;;;;5.03;3.88;;;;;;;;;;5070845;28;20611;-74
2022/03/19 00:52:54;;;;;;;5.60;4.28;;;;;;;;;;5065793;28;20237;-74
2022/03/19 00:55:21;;;;;;;4.32;3.92;;;;;;;;;;5063713;28;20218;-74
2022/03/19 00:57:49;;;;;;;5.35;4.55;;;;;;;;;;5068298;28;20202;-73
2022/03/19 01:00:16;;;;;;;10.15;5.13;;;;;;;;;;5071311;28;20205;-73
2022/03/19 01:02:44;;;;;;;7.28;5.60;;;;;;;;;;5062154;28;20607;-74
2022/03/19 01:05:12;;;;;;;8.73;4.60;;;;;;;;;;5062836;28;20190;-75
2022/03/19 01:07:44;;;;;;;8.05;4.15;;;;;;;;;;5069325;28;20220;-74
2022/03/19 01:10:12;;;;;;;6.70;4.57;;;;;;;;;;5069011;28;20197;-75
2022/03/19 01:12:39;;;;;;;9.32;5.07;;;;;;;;;;5061462;28;20737;-74
2022/03/19 01:15:06;;;;;;;5.55;4.10;;;;;;;;;;5058020;28;20214;-75
2022/03/19 01:17:33;;;;;;;7.10;5.15;;;;;;;;;;5068600;28;20202;-75
2022/03/19 01:20:02;;;;;;;7.10;5.28;;;;;;;;;;5070582;28;20190;-75
2022/03/19 01:22:29;;;;;;;4.70;4.30;;;;;;;;;;5070882;28;20198;-73
2022/03/19 01:24:59;;;;;;;7.72;4.93;;;;;;;;;;5069197;28;20272;-75
2022/03/19 01:27:26;;;;;;;6.78;4.70;;;;;;;;;;5070815;28;20220;-74
2022/03/19 01:29:53;;;;;;;8.18;4.97;;;;;;;;;;5064307;28;20205;-74
2022/03/19 01:32:20;;;;;;;5.68;4.95;;;;;;;;;;5069841;28;20557;-75
2022/03/19 01:34:47;;;;;;;6.45;4.55;;;;;;;;;;5070296;28;20679;-74
2022/03/19 01:37:14;;;;;;;3.92;3.50;;;;;;;;;;5070183;28;20210;-74
2022/03/19 01:39:41;;;;;;;5.30;4.80;;;;;;;;;;5070932;28;20193;-74
2022/03/19 01:42:10;;;;;;;6.40;5.35;;;;;;;;;;5070224;28;20572;-74
2022/03/19 01:44:37;;;;;;;7.82;4.85;;;;;;;;;;5068001;28;20584;-74
2022/03/19 01:47:06;;;;;;;6.40;4.60;;;;;;;;;;5069429;28;20210;-74
2022/03/19 01:49:33;;;;;;;6.50;4.30;;;;;;;;;;5069900;28;20252;-74
2022/03/19 01:52:00;;;;;;;6.45;4.38;;;;;;;;;;5062693;28;20248;-73
2022/03/19 01:54:28;;;;;;;6.55;4.90;;;;;;;;;;5069245;28;20248;-74
2022/03/19 01:56:55;;;;;;;5.25;4.43;;;;;;;;;;5070346;28;20232;-74
2022/03/19 01:59:26;;;;;;;7.53;6.47;;;;;;;;;;5065165;28;20665;-74
2022/03/19 02:01:53;;;;;;;4.78;3.63;;;;;;;;;;5072939;28;20186;-73
2022/03/19 02:04:21;;;;;;;6.10;4.07;;;;;;;;;;5083707;28;20193;-74
2022/03/19 02:06:48;;;;;;;4.97;4.45;;;;;;;;;;5076458;28;20194;-74
2022/03/19 02:09:15;;;;;;;6.25;4.35;;;;;;;;;;5062014;28;20207;-73
2022/03/19 02:11:44;;;;;;;5.97;4.20;;;;;;;;;;5064714;28;20198;-74
2022/03/19 02:14:11;;;;;;;11.23;5.03;;;;;;;;;;5066798;28;20272;-74
2022/03/19 02:16:39;;;;;;;5.40;4.60;;;;;;;;;;5069828;28;20222;-73
2022/03/19 02:19:06;;;;;;;9.48;5.53;;;;;;;;;;5064824;28;20426;-73
2022/03/19 02:21:40;;;;;;;4.50;4.10;;;;;;;;;;5069754;28;20232;-74
2022/03/19 02:26:56;;;;;;;8.57;4.55;;;;;;;;;;5050155;28;20769;-73
2022/03/19 02:29:23;;;;;;;5.35;4.22;;;;;;;;;;5060224;28;20197;-74
2022/03/19 02:31:52;;;;;;;5.22;4.40;;;;;;;;;;5066745;28;20186;-74
2022/03/19 02:34:19;;;;;;;9.05;3.60;;;;;;;;;;5074501;28;20197;-74
2022/03/19 02:36:46;;;;;;;5.97;3.72;;;;;;;;;;5070117;28;20615;-74
2022/03/19 02:39:16;;;;;;;4.80;3.55;;;;;;;;;;5070793;28;20633;-72
2022/03/19 02:41:43;;;;;;;5.97;4.13;;;;;;;;;;5075189;28;20193;-74
2022/03/19 02:44:11;;;;;;;4.45;4.05;;;;;;;;;;5072325;28;20190;-74
2022/03/19 02:46:39;;;;;;;5.00;4.03;;;;;;;;;;5076915;28;20202;-74
2022/03/19 02:49:06;;;;;;;4.30;3.80;;;;;;;;;;5073059;28;20194;-74
2022/03/19 02:51:34;;;;;;;6.72;3.65;;;;;;;;;;5074810;28;20587;-73
2022/03/19 02:54:03;;;;;;;5.57;3.80;;;;;;;;;;5076458;28;20733;-74
2022/03/19 02:56:31;;;;;;;5.50;3.55;;;;;;;;;;5081734;28;20225;-74
2022/03/19 02:58:58;;;;;;;5.95;4.07;;;;;;;;;;5078243;28;20243;-74
2022/03/19 03:01:25;;;;;;;8.18;4.03;;;;;;;;;;5072630;28;20191;-73
2022/03/19 03:03:52;;;;;;;4.20;3.80;;;;;;;;;;5077910;28;20537;-74
2022/03/19 03:06:20;;;;;;;5.25;4.03;;;;;;;;;;5075432;28;20198;-74
2022/03/19 03:08:47;;;;;;;4.75;3.70;;;;;;;;;;5063972;28;20191;-74
2022/03/19 03:11:15;;;;;;;9.07;4.93;;;;;;;;;;5073811;28;20194;-74
2022/03/19 03:13:44;;;;;;;6.15;4.30;;;;;;;;;;5073781;28;20199;-74
2022/03/19 03:16:11;;;;;;;5.80;4.10;;;;;;;;;;5070488;28;20260;-75
2022/03/19 03:18:38;;;;;;;4.82;4.30;;;;;;;;;;5073671;28;20194;-74
2022/03/19 03:21:05;;;;;;;4.47;3.97;;;;;;;;;;5071691;28;20646;-75
2022/03/19 03:23:32;;;;;;;7.93;5.35;;;;;;;;;;5067777;28;20744;-74
2022/03/19 03:26:00;;;;;;;3.88;3.55;;;;;;;;;;5060907;28;20205;-74
2022/03/19 03:28:27;;;;;;;7.50;4.65;;;;;;;;;;5072671;28;20197;-74
2022/03/19 03:30:56;;;;;;;5.00;4.43;;;;;;;;;;5061947;28;20710;-74
2022/03/19 03:33:23;;;;;;;3.10;2.90;;;;;;;;;;5073502;28;20198;-74
2022/03/19 03:35:50;;;;;;;7.75;4.97;;;;;;;;;;5073116;28;20246;-74
2022/03/19 03:38:20;;;;;;;5.13;4.10;;;;;;;;;;5072020;28;20196;-74
2022/03/19 03:40:47;;;;;;;4.35;3.95;;;;;;;;;;5074273;28;20569;-74
2022/03/19 03:43:14;;;;;;;8.38;3.90;;;;;;;;;;5072874;28;20209;-74
2022/03/19 03:45:41;;;;;;;6.97;4.63;;;;;;;;;;5073010;28;20190;-74
2022/03/19 03:48:10;;;;;;;8.75;4.07;;;;;;;;;;5071971;28;20191;-74
2022/03/19 03:50:37;;;;;;;4.22;3.80;;;;;;;;;;5072160;28;20198;-74
2022/03/19 03:53:05;;;;;;;8.88;4.05;;;;;;;;;;5073921;28;20194;-74
2022/03/19 03:55:33;;;;;;;6.10;4.68;;;;;;;;;;5075878;28;20194;-75
2022/03/19 03:58:00;;;;;;;4.68;3.65;;;;;;;;;;5080531;28;20544;-74
2022/03/19 04:00:27;;;;;;;6.30;4.30;;;;;;;;;;5072663;28;20198;-74
2022/03/19 04:02:55;;;;;;;5.05;4.18;;;;;;;;;;5062110;28;20199;-74
2022/03/19 04:05:24;;;;;;;6.15;3.88;;;;;;;;;;5072611;28;20198;-73
2022/03/19 04:07:51;;;;;;;5.13;4.57;;;;;;;;;;5067300;28;20545;-73
2022/03/19 04:10:18;;;;;;;6.25;4.10;;;;;;;;;;5056565;28;20198;-75
2022/03/19 04:12:46;;;;;;;5.20;4.10;;;;;;;;;;5072423;28;20193;-74
2022/03/19 04:15:13;;;;;;;7.07;4.63;;;;;;;;;;5070123;28;20561;-74
2022/03/19 04:17:40;;;;;;;4.57;3.83;;;;;;;;;;5073982;28;20214;-74
2022/03/19 04:20:08;;;;;;;5.93;4.10;;;;;;;;;;5076840;28;20190;-74
2022/03/19 04:22:37;;;;;;;9.20;4.50;;;;;;;;;;5075345;28;20185;-74
2022/03/19 04:25:04;;;;;;;10.82;5.45;;;;;;;;;;5078481;28;20229;-74
2022/03/19 04:27:31;;;;;;;5.43;4.57;;;;;;;;;;5076009;28;20643;-75
2022/03/19 04:29:58;;;;;;;9.07;5.60;;;;;;;;;;5071245;28;20949;-74
2022/03/19 04:32:25;;;;;;;5.47;3.72;;;;;;;;;;5074101;28;20600;-74
2022/03/19 04:34:52;;;;;;;11.05;5.13;;;;;;;;;;5071991;28;20194;-74
2022/03/19 04:37:19;;;;;;;7.25;5.00;;;;;;;;;;5075647;28;20232;-74
2022/03/19 04:39:48;;;;;;;5.20;3.90;;;;;;;;;;5070900;28;20189;-74
2022/03/19 04:42:16;;;;;;;6.80;4.20;;;;;;;;;;5078934;28;20206;-74
2022/03/19 04:44:43;;;;;;;9.02;4.20;;;;;;;;;;5076598;28;20196;-74
2022/03/19 04:47:10;;;;;;;7.43;3.60;;;;;;;;;;5069913;28;20608;-74
2022/03/19 04:49:37;;;;;;;9.85;4.43;;;;;;;;;;5083074;28;20194;-75
2022/03/19 04:52:05;;;;;;;4.47;4.07;;;;;;;;;;5072447;28;20202;-74
2022/03/19 04:54:32;;;;;;;5.28;4.75;;;;;;;;;;5068350;28;20194;-74
2022/03/19 04:57:02;;;;;;;6.47;5.80;;;;;;;;;;5068345;28;20214;-73
2022/03/19 04:59:29;;;;;;;4.40;4.03;;;;;;;;;;5073600;28;20196;-74
2022/03/19 05:01:56;;;;;;;6.70;4.20;;;;;;;;;;5073973;28;20213;-74
2022/03/19 05:04:23;;;;;;;5.80;4.72;;;;;;;;;;5073428;28;20604;-74
2022/03/19 05:06:51;;;;;;;5.47;4.20;;;;;;;;;;5080210;28;20194;-73
2022/03/19 05:12:05;;;;;;;5.78;4.38;;;;;;;;;;5073415;28;20843;-73
2022/03/19 05:14:32;;;;;;;6.15;4.00;;;;;;;;;;5071016;28;20607;-73
2022/03/19 05:16:59;;;;;;;4.70;4.20;;;;;;;;;;5073853;28;20275;-73
2022/03/19 05:19:26;;;;;;;6.65;4.50;;;;;;;;;;5070697;28;20190;-73
2022/03/19 05:21:53;;;;;;;4.97;4.45;;;;;;;;;;5071106;28;20198;-73
2022/03/19 05:24:20;;;;;;;6.47;4.00;;;;;;;;;;5072458;28;20229;-73
2022/03/19 05:26:47;;;;;;;6.93;4.40;;;;;;;;;;5074250;28;20561;-73
2022/03/19 05:29:15;;;;;;;5.60;5.10;;;;;;;;;;5068463;28;20239;-73
2022/03/19 05:31:43;;;;;;;5.13;4.43;;;;;;;;;;5072296;28;20190;-73
2022/03/19 05:36:54;;;;;;;6.82;4.57;;;;;;;;;;5067436;28;20360;-73
2022/03/19 05:39:22;;;;;;;7.70;4.93;;;;;;;;;;5066575;28;20197;-73
2022/03/19 05:41:49;;;;;;;8.38;5.05;;;;;;;;;;5074401;28;20262;-73
2022/03/19 05:44:17;;;;;;;6.47;5.10;;;;;;;;;;5077041;28;20189;-73
2022/03/19 05:46:44;;;;;;;7.47;4.85;;;;;;;;;;5070609;28;20663;-73
2022/03/19 05:49:11;;;;;;;7.40;4.80;;;;;;;;;;5078290;28;20218;-73
2022/03/19 05:51:38;;;;;;;6.25;4.30;;;;;;;;;;5071615;28;20200;-73
2022/03/19 05:54:05;;;;;;;10.07;4.35;;;;;;;;;;5072781;28;20202;-73
2022/03/19 05:56:32;;;;;;;4.70;3.80;;;;;;;;;;5069994;28;20268;-74
2022/03/19 05:59:00;;;;;;;10.82;4.35;;;;;;;;;;5073042;28;20197;-73
2022/03/19 06:01:28;;;;;;;6.07;4.60;;;;;;;;;;5075852;28;20194;-73
2022/03/19 06:03:55;;;;;;;12.25;4.80;;;;;;;;;;5077252;28;20289;-73
2022/03/19 06:06:22;;;;;;;6.88;4.95;;;;;;;;;;5069733;28;20198;-73
2022/03/19 06:08:49;;;;;;;6.45;4.70;;;;;;;;;;5069107;28;20213;-73
2022/03/19 06:11:16;;;;;;;7.75;4.85;;;;;;;;;;5073456;28;20221;-74
2022/03/19 06:13:51;;;;;;;6.60;4.65;;;;;;;;;;5070472;28;20191;-73
2022/03/19 06:16:19;;;;;;;7.30;5.07;;;;;;;;;;5076736;28;20529;-74
2022/03/19 06:18:50;;;;;;;11.98;4.75;;;;;;;;;;5084801;28;20191;-73
2022/03/19 06:21:18;;;;;;;5.22;3.85;;;;;;;;;;5077027;28;20205;-73
2022/03/19 06:23:46;;;;;;;7.15;5.15;;;;;;;;;;5071220;28;20219;-73
2022/03/19 06:26:13;;;;;;;11.00;4.75;;;;;;;;;;5066264;28;20201;-74
2022/03/19 06:28:40;;;;;;;6.35;4.82;;;;;;;;;;5072385;28;20198;-74
2022/03/19 06:31:07;;;;;;;12.45;4.85;;;;;;;;;;5081903;28;20486;-74
2022/03/19 06:33:35;;;;;;;5.18;3.97;;;;;;;;;;5075176;28;20198;-74
2022/03/19 06:38:48;;;;;;;7.95;4.07;;;;;;;;;;5080265;28;20229;-74
2022/03/19 06:41:15;;;;;;;8.30;4.38;;;;;;;;;;5076983;28;20189;-73
2022/03/19 06:43:43;;;;;;;6.90;4.63;;;;;;;;;;5075233;28;20190;-74
2022/03/19 06:46:10;;;;;;;7.60;4.20;;;;;;;;;;5076056;28;20213;-74
2022/03/19 06:48:37;;;;;;;10.00;4.47;;;;;;;;;;5077190;28;20194;-73
2022/03/19 06:51:06;;;;;;;6.70;4.40;;;;;;;;;;5080326;28;20206;-73
2022/03/19 06:53:33;;;;;;;6.68;4.30;;;;;;;;;;5079086;28;20217;-75
2022/03/19 06:56:00;;;;;;;6.25;4.28;;;;;;;;;;5070147;28;20194;-73
2022/03/19 06:58:27;;;;;;;5.32;4.03;;;;;;;;;;5072298;28;20214;-73
2022/03/19 07:00:54;;;;;;;7.43;4.70;;;;;;;;;;5075586;28;20251;-73
2022/03/19 07:03:21;;;;;;;7.15;4.20;;;;;;;;;;5082528;28;20201;-73
2022/03/19 07:05:48;;;;;;;9.90;4.22;;;;;;;;;;5072988;28;20202;-73
2022/03/19 07:08:17;;;;;;;11.15;5.80;;;;;;;;;;5076609;28;20206;-77
2022/03/19 07:10:44;;;;;;;8.65;5.53;;;;;;;;;;5075827;28;20277;-75
2022/03/19 07:13:11;;;;;;;7.97;4.95;;;;;;;;;;5074153;28;20202;-73
2022/03/19 07:15:38;;;;;;;10.45;4.65;;;;;;;;;;5074429;28;20218;-74
2022/03/19 07:18:05;;;;;;;9.52;5.80;;;;;;;;;;5075804;28;20217;-75
2022/03/19 07:20:32;;;;;;;7.30;5.20;;;;;;;;;;5069489;28;20190;-75
2022/03/19 07:23:00;;;;;;;9.55;4.97;;;;;;;;;;5075548;28;20201;-74
2022/03/19 07:25:29;;;;;;;10.32;5.57;;;;;;;;;;5074314;28;20206;-76
2022/03/19 07:27:57;;;;;;;6.45;4.35;;;;;;;;;;5077427;28;20198;-74
2022/03/19 07:30:24;;;;;;;5.85;4.60;;;;;;;;;;5078904;28;20205;-74
2022/03/19 07:32:52;;;;;;;16.25;5.78;;;;;;;;;;5071393;28;20198;-72
2022/03/19 07:35:19;;;;;;;9.75;5.07;;;;;;;;;;5071151;28;20397;-75
2022/03/19 07:37:47;;;;;;;11.35;5.43;;;;;;;;;;5076338;28;20740;-72
2022/03/19 07:40:14;;;;;;;10.20;5.63;;;;;;;;;;5068167;28;20450;-74
2022/03/19 07:42:42;;;;;;;9.70;5.10;;;;;;;;;;5078823;28;20216;-74
2022/03/19 07:45:09;;;;;;;10.48;4.93;;;;;;;;;;5071782;28;20221;-74
2022/03/19 07:47:36;;;;;;;9.20;4.43;;;;;;;;;;5072599;28;20229;-74
2022/03/19 07:50:04;;;;;;;7.47;5.10;;;;;;;;;;5074028;28;20202;-74
2022/03/19 07:52:33;;;;;;;11.00;6.43;;;;;;;;;;5073541;28;20564;-74
2022/03/19 07:55:00;;;;;;;9.98;5.20;;;;;;;;;;5071791;28;20284;-74
2022/03/19 07:57:27;;;;;;;6.07;5.03;;;;;;;;;;5074233;28;20696;-75
2022/03/19 07:59:55;;;;;;;9.23;5.88;;;;;;;;;;5076821;28;20198;-75
2022/03/19 08:02:22;;;;;;;10.88;6.70;;;;;;;;;;5073052;28;20185;-74
2022/03/19 08:04:49;;;;;;;9.25;5.53;;;;;;;;;;5072370;28;20194;-75
2022/03/19 08:07:17;;;;;;;7.97;5.10;;;;;;;;;;5069877;28;20201;-75
2022/03/19 08:09:44;;;;;;;10.27;5.97;;;;;;;;;;5070700;28;20626;-75
2022/03/19 08:12:14;;;;;;;8.43;5.00;;;;;;;;;;5070004;28;20197;-75
2022/03/19 08:14:42;;;;;;;6.40;4.43;;;;;;;;;;5069047;28;20198;-75
2022/03/19 08:17:10;;;;;;;8.10;5.22;;;;;;;;;;5070036;28;20194;-76
2022/03/19 08:19:38;;;;;;;9.32;4.47;;;;;;;;;;5071956;28;20198;-74
2022/03/19 08:22:05;;;;;;;9.77;5.10;;;;;;;;;;5074596;28;20198;-75
2022/03/19 08:24:33;;;;;;;6.22;3.65;;;;;;;;;;5065116;28;20225;-74
2022/03/19 08:27:00;;;;;;;6.68;3.38;;;;;;;;;;5069441;28;20194;-74
2022/03/19 08:29:27;;;;;;;10.93;4.00;;;;;;;;;;5069146;28;20201;-74
2022/03/19 08:31:54;;;;;;;6.82;3.78;;;;;;;;;;5072217;28;20217;-74
2022/03/19 08:34:23;;;;;;;5.60;3.78;;;;;;;;;;5071469;28;20189;-74
2022/03/19 08:36:50;;;;;;;4.07;3.63;;;;;;;;;;5068423;28;20202;-75
2022/03/19 08:42:02;;;;;;;8.65;3.67;;;;;;;;;;5070456;28;20948;-75
2022/03/19 08:44:29;;;;;;;6.65;3.53;;;;;;;;;;5074576;28;20194;-75
2022/03/19 08:46:56;;;;;;;6.38;3.25;;;;;;;;;;5067615;28;20194;-75
2022/03/19 08:49:24;;;;;;;4.45;2.97;;;;;;;;;;5074447;28;20280;-75
2022/03/19 08:51:51;;;;;;;4.53;3.70;;;;;;;;;;5075402;28;20198;-75
2022/03/19 08:54:19;;;;;;;3.70;2.30;;;;;;;;;;5067517;28;20199;-75
2022/03/19 08:56:48;;;;;;;4.28;3.50;;;;;;;;;;5072281;28;20209;-74
2022/03/19 08:59:16;;;;;;;6.05;3.40;;;;;;;;;;5068826;28;20826;-75
2022/03/19 09:01:44;;;;;;;4.95;3.00;;;;;;;;;;5070142;28;20286;-74
2022/03/19 09:04:11;;;;;;;4.70;2.65;;;;;;;;;;5068059;28;21818;-73
2022/03/19 09:06:41;;;;;;;4.75;2.50;;;;;;;;;;5069103;28;20213;-73
2022/03/19 09:09:08;;;;;;;4.32;3.05;;;;;;;;;;5074553;28;20217;-73
2022/03/19 09:11:36;;;;;;;4.10;2.72;;;;;;;;;;5074232;28;20186;-74
2022/03/19 09:14:04;;;;;;;3.63;2.65;;;;;;;;;;5068535;28;20205;-74
2022/03/19 09:16:31;;;;;;;3.40;2.65;;;;;;;;;;5072304;28;20657;-74
2022/03/19 09:18:58;;;;;;;5.13;2.65;;;;;;;;;;5071778;28;20224;-74
2022/03/19 09:21:25;;;;;;;3.67;2.53;;;;;;;;;;5069146;28;20193;-74
2022/03/19 09:23:54;;;;;;;3.78;2.40;;;;;;;;;;5069992;28;20237;-74
2022/03/19 09:26:21;;;;;;;5.28;2.67;;;;;;;;;;5068298;28;20194;-73
2022/03/19 09:28:48;;;;;;;4.07;2.10;;;;;;;;;;5075654;28;20189;-73
2022/03/19 09:31:16;;;;;;;3.67;1.92;;;;;;;;;;5070171;28;20190;-73
2022/03/19 09:33:43;;;;;;;7.18;2.25;;;;;;;;;;5074809;28;20627;-73
2022/03/19 09:36:10;;;;;;;6.63;4.70;;;;;;;;;;5073347;28;20198;-74
2022/03/19 09:38:37;;;;;;;7.82;2.20;;;;;;;;;;5073965;28;20224;-73
2022/03/19 09:41:07;;;;;;;3.88;2.00;;;;;;;;;;5074102;28;20193;-74
2022/03/19 09:43:34;;;;;;;4.32;2.00;;;;;;;;;;5074033;28;20200;-75
2022/03/19 09:46:01;;;;;;;7.65;2.10;;;;;;;;;;5075502;28;20231;-73
2022/03/19 09:48:28;;;;;;;3.38;2.05;;;;;;;;;;5081002;28;20239;-74
2022/03/19 09:50:56;;;;;;;4.88;2.63;;;;;;;;;;5070599;28;20206;-74
2022/03/19 09:53:23;;;;;;;3.80;1.95;;;;;;;;;;5075200;28;20198;-74
2022/03/19 09:55:52;;;;;;;9.02;2.28;;;;;;;;;;5062146;28;20231;-74
2022/03/19 09:58:22;;;;;;;5.18;2.22;;;;;;;;;;5074425;28;20218;-74
2022/03/19 10:00:49;;;;;;;4.78;2.25;;;;;;;;;;5072921;28;20189;-73
2022/03/19 10:03:17;;;;;;;3.33;1.90;;;;;;;;;;5075336;28;20201;-74
2022/03/19 10:08:40;;;;;;;5.38;2.00;;;;;;;;;;5053988;28;20680;-75
2022/03/19 10:11:08;;;;;;;4.03;1.80;;;;;;;;;;5063805;28;20197;-73
2022/03/19 10:13:40;;;;;;;2.20;1.60;;;;;;;;;;5070511;28;20263;-74
2022/03/19 10:16:07;;;;;;;5.22;2.13;;;;;;;;;;5069561;28;20627;-74
2022/03/19 10:18:34;;;;;;;4.38;2.10;;;;;;;;;;5071392;28;20300;-76
2022/03/19 10:21:03;;;;;;;3.40;1.80;;;;;;;;;;5063005;28;20213;-76
2022/03/19 10:23:31;;;;;;;6.82;2.28;;;;;;;;;;5072198;28;20397;-75
2022/03/19 10:25:58;;;;;;;4.57;2.10;;;;;;;;;;5084924;28;20201;-75
2022/03/19 10:28:29;;;;;;;3.90;1.85;;;;;;;;;;5067363;28;20203;-75
2022/03/19 10:30:58;;;;;;;3.22;1.80;;;;;;;;;;5068325;28;20202;-76
2022/03/19 10:33:27;;;;;;;2.80;1.77;;;;;;;;;;5074672;28;20190;-74
2022/03/19 10:36:05;;;;;;;4.38;2.22;;;;;;;;;;5070872;28;20313;-75
2022/03/19 10:38:40;;;;;;;5.45;2.20;;;;;;;;;;5070645;28;20304;-76
2022/03/19 10:41:07;;;;;;;4.80;1.70;;;;;;;;;;5070817;28;20594;-75
2022/03/19 10:43:34;;;;;;;2.97;1.80;;;;;;;;;;5071896;28;20564;-76
2022/03/19 10:46:04;;;;;;;3.67;2.00;;;;;;;;;;5065310;28;20626;-80
2022/03/19 10:48:32;;;;;;;4.38;2.03;;;;;;;;;;5070230;28;20206;-78
2022/03/19 10:50:59;;;;;;;4.65;2.10;;;;;;;;;;5069238;28;20203;-75
2022/03/19 10:53:28;;;;;;;3.10;1.60;;;;;;;;;;5073294;28;20193;-75
2022/03/19 10:55:55;;;;;;;3.50;1.63;;;;;;;;;;5073905;28;20201;-75
2022/03/19 10:58:23;;;;;;;5.05;1.65;;;;;;;;;;5068441;28;20218;-74
2022/03/19 11:00:51;;;;;;;9.25;2.13;;;;;;;;;;5076130;28;20614;-71
2022/03/19 11:03:21;;;;;;;4.88;2.53;;;;;;;;;;5077853;28;20198;-72
2022/03/19 11:05:50;;;;;;;3.67;1.70;;;;;;;;;;5071805;28;20672;-70
2022/03/19 11:08:19;;;;;;;6.30;2.75;;;;;;;;;;5077341;28;20198;-71
2022/03/19 11:10:47;;;;;;;3.90;1.65;;;;;;;;;;5073214;28;20281;-71
2022/03/19 11:13:17;;;;;;;3.65;1.30;;;;;;;;;;5072378;28;20647;-71
2022/03/19 11:15:44;;;;;;;3.20;1.42;;;;;;;;;;5071227;28;20273;-71
2022/03/19 11:18:11;;;;;;;6.25;2.17;;;;;;;;;;5070865;28;20738;-72
2022/03/19 11:20:40;;;;;;;8.57;1.73;;;;;;;;;;5072615;28;20202;-76
2022/03/19 11:23:09;;;;;;;5.50;1.63;;;;;;;;;;5073114;28;20321;-71
2022/03/19 11:25:38;;;;;;;2.20;1.70;;;;;;;;;;5075044;28;20189;-71
2022/03/19 11:28:08;;;;;;;2.97;1.85;;;;;;;;;;5076864;28;20275;-71
2022/03/19 11:30:36;;;;;;;5.97;1.92;;;;;;;;;;5070743;28;20675;-71
2022/03/19 11:33:10;;;;;;;4.05;1.80;;;;;;;;;;5075260;28;20194;-71
2022/03/19 11:35:38;;;;;;;4.47;2.10;;;;;;;;;;5075996;28;20659;-72
2022/03/19 11:38:11;;;;;;;5.38;1.90;;;;;;;;;;5074497;28;20222;-72
2022/03/19 11:40:38;;;;;;;2.97;2.20;;;;;;;;;;5078245;28;20193;-71
2022/03/19 11:43:07;;;;;;;6.75;2.38;;;;;;;;;;5075589;28;20611;-71
2022/03/19 11:45:51;;;;;;;4.50;2.22;;;;;;;;;;5073953;28;20186;-71
2022/03/19 11:48:37;;;;;;;13.02;3.22;;;;;;;;;;5077489;28;20200;-71
2022/03/19 11:51:14;;;;;;;3.67;1.95;;;;;;;;;;5074276;28;20190;-72
2022/03/19 11:53:52;;;;;;;2.22;1.50;;;;;;;;;;5064345;28;20672;-70
2022/03/19 11:56:20;;;;;;;4.30;1.80;;;;;;;;;;5071043;28;20206;-72
2022/03/19 11:58:47;;;;;;;2.75;1.40;;;;;;;;;;5076455;28;20324;-71
2022/03/19 12:01:14;;;;;;;7.53;2.03;;;;;;;;;;5074754;28;20189;-71
2022/03/19 12:03:56;;;;;;;3.85;1.70;;;;;;;;;;5076100;28;20198;-71
2022/03/19 12:06:30;;;;;;;5.15;1.60;;;;;;;;;;5073437;28;20208;-71
2022/03/19 12:08:59;;;;;;;1.63;1.30;;;;;;;;;;5070363;28;20663;-70
2022/03/19 12:11:26;;;;;;;2.80;1.60;;;;;;;;;;5071601;28;20209;-72
2022/03/19 12:13:53;;;;;;;3.63;1.52;;;;;;;;;;5071687;28;21201;-71
2022/03/19 12:16:39;;;;;;;5.03;1.92;;;;;;;;;;5067912;28;20206;-71
2022/03/19 12:19:06;;;;;;;3.35;1.48;;;;;;;;;;5074220;28;20222;-70
2022/03/19 12:21:35;;;;;;;2.60;1.73;;;;;;;;;;5072607;28;20235;-71
2022/03/19 12:24:17;;;;;;;1.95;1.35;;;;;;;;;;5073342;28;20236;-73
2022/03/19 12:26:47;;;;;;;3.15;1.73;;;;;;;;;;5070232;28;20200;-73
2022/03/19 12:29:15;;;;;;;3.35;1.60;;;;;;;;;;5064328;28;20795;-72
2022/03/19 12:31:45;;;;;;;6.03;1.75;;;;;;;;;;5067241;28;20194;-72
2022/03/19 12:34:15;;;;;;;4.28;1.77;;;;;;;;;;5071926;28;20603;-72
2022/03/19 12:36:43;;;;;;;2.50;1.58;;;;;;;;;;5068601;28;20191;-73
2022/03/19 12:39:10;;;;;;;3.47;2.00;;;;;;;;;;5068459;28;20477;-71
2022/03/19 12:41:37;;;;;;;2.00;1.40;;;;;;;;;;5072259;28;20201;-72
2022/03/19 12:44:07;;;;;;;2.05;1.35;;;;;;;;;;5071453;28;20202;-73
2022/03/19 12:46:35;;;;;;;5.20;2.25;;;;;;;;;;5077037;28;20194;-72
2022/03/19 12:49:03;;;;;;;1.83;1.52;;;;;;;;;;5076142;28;20194;-73
2022/03/19 12:51:30;;;;;;;3.30;1.88;;;;;;;;;;5076201;28;20190;-72
2022/03/19 12:53:57;;;;;;;2.25;1.55;;;;;;;;;;5068740;28;20193;-72
2022/03/19 12:56:25;;;;;;;2.75;1.48;;;;;;;;;;5069515;28;20264;-72
2022/03/19 12:58:53;;;;;;;2.47;1.30;;;;;;;;;;5079755;28;20221;-72
2022/03/19 13:01:23;;;;;;;1.42;1.33;;;;;;;;;;5074465;28;20251;-72
2022/03/19 13:03:53;;;;;;;2.40;1.30;;;;;;;;;;5072315;28;20201;-72
2022/03/19 13:06:27;;;;;;;4.57;1.67;;;;;;;;;;5071008;28;20259;-72
2022/03/19 13:08:54;;;;;;;4.05;1.60;;;;;;;;;;5065533;28;20203;-72
2022/03/19 13:11:21;;;;;;;2.28;1.50;;;;;;;;;;5072957;28;20190;-72
2022/03/19 13:13:48;;;;;;;4.35;1.77;;;;;;;;;;5076265;28;20204;-72
2022/03/19 13:16:28;;;;;;;3.97;2.58;;;;;;;;;;5065076;28;20259;-72
2022/03/19 13:18:59;;;;;;;3.22;1.30;;;;;;;;;;5070012;28;20245;-72
2022/03/19 13:21:26;;;;;;;6.18;1.80;;;;;;;;;;5080890;28;20185;-72
2022/03/19 13:23:54;;;;;;;2.72;1.60;;;;;;;;;;5077664;28;20226;-72
2022/03/19 13:26:21;;;;;;;2.00;1.70;;;;;;;;;;5068245;28;20201;-72
2022/03/19 13:29:02;;;;;;;6.03;1.95;;;;;;;;;;5074683;28;20187;-74
2022/03/19 13:31:34;;;;;;;3.22;1.10;;;;;;;;;;5073488;28;20652;-73
2022/03/19 13:34:01;;;;;;;2.25;1.70;;;;;;;;;;5077032;28;20243;-71
2022/03/19 13:36:29;;;;;;;4.68;1.35;;;;;;;;;;5079051;28;20234;-72
2022/03/19 13:38:56;;;;;;;2.70;1.60;;;;;;;;;;5069788;28;20557;-72
2022/03/19 13:41:24;;;;;;;3.00;1.58;;;;;;;;;;5069579;28;20190;-72
2022/03/19 13:43:51;;;;;;;2.20;1.10;;;;;;;;;;5073327;28;20198;-73
2022/03/19 13:46:20;;;;;;;3.67;1.20;;;;;;;;;;5074676;28;20194;-71
2022/03/19 13:48:49;;;;;;;5.85;1.70;;;;;;;;;;5075014;28;20197;-71
2022/03/19 13:51:17;;;;;;;1.80;1.20;;;;;;;;;;5071318;28;20190;-72
2022/03/19 13:53:45;;;;;;;2.55;1.30;;;;;;;;;;5078052;28;20216;-72
2022/03/19 13:56:13;;;;;;;3.80;1.30;;;;;;;;;;5076232;28;20194;-72
2022/03/19 13:58:40;;;;;;;1.95;1.00;;;;;;;;;;5072243;28;20531;-72
2022/03/19 14:01:14;;;;;;;4.40;1.73;;;;;;;;;;5081117;28;20314;-72
2022/03/19 14:03:42;;;;;;;6.22;1.85;;;;;;;;;;5074176;28;20643;-73
2022/03/19 14:06:11;;;;;;;4.45;1.55;;;;;;;;;;5067761;28;20328;-71
2022/03/19 14:08:39;;;;;;;2.88;1.67;;;;;;;;;;5067017;28;20202;-72
2022/03/19 14:11:12;;;;;;;2.03;1.30;;;;;;;;;;5065051;28;20202;-73
2022/03/19 14:13:43;;;;;;;3.58;2.00;;;;;;;;;;5073873;28;20226;-72
2022/03/19 14:16:11;;;;;;;2.05;1.60;;;;;;;;;;5070954;28;20285;-72
2022/03/19 14:18:39;;;;;;;3.17;1.98;;;;;;;;;;5075777;28;20196;-72
2022/03/19 14:21:08;;;;;;;3.70;1.90;;;;;;;;;;5079723;28;20218;-73
2022/03/19 14:23:37;;;;;;;3.65;2.58;;;;;;;;;;5066367;28;20244;-72
2022/03/19 14:26:05;;;;;;;6.40;2.10;;;;;;;;;;5068038;28;20198;-72
2022/03/19 14:28:32;;;;;;;2.20;1.42;;;;;;;;;;5068777;28;20657;-72
2022/03/19 14:30:59;;;;;;;6.60;2.00;;;;;;;;;;5072994;28;20294;-72
2022/03/19 14:33:26;;;;;;;7.15;2.80;;;;;;;;;;5068434;28;20201;-73
2022/03/19 14:35:54;;;;;;;3.80;1.50;;;;;;;;;;5073328;28;20637;-72
2022/03/19 14:38:22;;;;;;;5.75;1.25;;;;;;;;;;5076761;28;20199;-72
2022/03/19 14:40:51;;;;;;;5.05;1.65;;;;;;;;;;5078278;28;20308;-72
2022/03/19 14:43:19;;;;;;;2.97;2.40;;;;;;;;;;5073002;28;20186;-72
2022/03/19 14:45:47;;;;;;;3.10;1.80;;;;;;;;;;5078236;28;20210;-72
2022/03/19 14:48:14;;;;;;;5.72;1.98;;;;;;;;;;5072200;28;20191;-72
2022/03/19 14:50:41;;;;;;;6.03;2.05;;;;;;;;;;5076109;28;20672;-74
2022/03/19 14:53:08;;;;;;;2.20;1.90;;;;;;;;;;5073847;28;20198;-72
2022/03/19 14:55:35;;;;;;;5.28;2.10;;;;;;;;;;5074784;28;20206;-73
2022/03/19 14:58:04;;;;;;;2.30;1.52;;;;;;;;;;5064875;28;20198;-71
2022/03/19 15:00:32;;;;;;;6.28;1.73;;;;;;;;;;5068426;28;20225;-73
2022/03/19 15:02:59;;;;;;;3.30;2.00;;;;;;;;;;5069223;28;20198;-72
2022/03/19 15:05:27;;;;;;;4.80;1.60;;;;;;;;;;5070743;28;20296;-73